Time;durP1;ratioP1;P1;durP2;ratioP2;P2;SDS_P1;SDS_P2;PMS_P1;PMS_P2;Temp;Humidity;BMP_temperature;BMP_pressure;BME280_temperature;BME280_humidity;BME280_pressure;Samples;Min_cycle;Max_cycle;Signal;HPM_P1;HPM_P2
2022/02/22 00:01:41;;;;;;;;;;;2.00;99.90;;;;;;4173794;28;20317;-52
2022/02/22 00:03:43;;;;;;;;;;;2.30;99.90;;;;;;4165589;28;19925;-52
2022/02/22 00:05:45;;;;;;;;;;;2.40;99.90;;;;;;4173233;28;19999;-53
2022/02/22 00:07:47;;;;;;;;;;;2.50;99.90;;;;;;4171035;28;20365;-51
2022/02/22 00:09:49;;;;;;;;;;;2.40;99.90;;;;;;4190149;28;19954;-52
2022/02/22 00:11:51;;;;;;;;;;;2.30;99.90;;;;;;4171316;28;19925;-51
2022/02/22 00:13:53;;;;;;;;;;;2.20;99.90;;;;;;4164299;28;19964;-52
2022/02/22 00:15:56;;;;;;;;;;;2.20;99.90;;;;;;4168549;28;19971;-52
2022/02/22 00:17:58;;;;;;;;;;;2.30;99.90;;;;;;4173856;28;19925;-52
2022/02/22 00:20:01;;;;;;;;;;;2.10;99.90;;;;;;4174854;28;19925;-52
2022/02/22 00:22:03;;;;;;;;;;;2.00;99.90;;;;;;4177624;28;20475;-52
2022/02/22 00:24:05;;;;;;;;;;;2.00;99.90;;;;;;4175313;28;20020;-52
2022/02/22 00:26:07;;;;;;;;;;;2.00;99.90;;;;;;4178255;28;19929;-52
2022/02/22 00:28:09;;;;;;;;;;;2.00;99.90;;;;;;4181953;28;19959;-52
2022/02/22 00:30:12;;;;;;;;;;;1.90;99.90;;;;;;4176071;28;19982;-51
2022/02/22 00:32:15;;;;;;;;;;;2.10;99.90;;;;;;4193586;28;20027;-52
2022/02/22 00:34:17;;;;;;;;;;;2.30;99.90;;;;;;4175337;28;20269;-52
2022/02/22 00:36:19;;;;;;;;;;;2.40;99.90;;;;;;4164853;28;19971;-52
2022/02/22 00:38:23;;;;;;;;;;;2.60;99.90;;;;;;4177955;28;19978;-49
2022/02/22 00:40:25;;;;;;;;;;;2.70;99.90;;;;;;4174881;28;19966;-52
2022/02/22 00:42:27;;;;;;;;;;;2.60;99.90;;;;;;4175344;28;20039;-52
2022/02/22 00:44:29;;;;;;;;;;;2.50;99.90;;;;;;4165401;28;19987;-51
2022/02/22 00:46:31;;;;;;;;;;;2.40;99.90;;;;;;4166265;28;19972;-52
2022/02/22 00:48:33;;;;;;;;;;;2.40;99.90;;;;;;4170542;28;19925;-51
2022/02/22 00:50:35;;;;;;;;;;;2.40;99.90;;;;;;4177980;28;19967;-52
2022/02/22 00:52:37;;;;;;;;;;;2.40;99.90;;;;;;4172109;28;19955;-52
2022/02/22 00:54:39;;;;;;;;;;;2.20;99.90;;;;;;4173635;28;19960;-52
2022/02/22 00:56:41;;;;;;;;;;;1.70;99.90;;;;;;4169931;28;19933;-52
2022/02/22 00:58:43;;;;;;;;;;;1.40;99.90;;;;;;4170873;28;19933;-52
2022/02/22 01:00:45;;;;;;;;;;;1.20;99.90;;;;;;4172464;28;20266;-52
2022/02/22 01:02:47;;;;;;;;;;;1.30;99.90;;;;;;4171879;28;19925;-52
2022/02/22 01:04:49;;;;;;;;;;;1.20;99.90;;;;;;4174795;28;20339;-52
2022/02/22 01:06:51;;;;;;;;;;;1.40;99.90;;;;;;4163986;28;19975;-52
2022/02/22 01:08:53;;;;;;;;;;;1.30;99.90;;;;;;4168023;28;19929;-51
2022/02/22 01:10:55;;;;;;;;;;;1.40;99.90;;;;;;4168028;28;19932;-51
2022/02/22 01:12:57;;;;;;;;;;;1.30;99.90;;;;;;4174558;28;20027;-52
2022/02/22 01:14:59;;;;;;;;;;;1.20;99.90;;;;;;4168948;28;19925;-52
2022/02/22 01:17:01;;;;;;;;;;;1.30;99.90;;;;;;4165651;28;20381;-52
2022/02/22 01:19:03;;;;;;;;;;;1.20;99.90;;;;;;4176467;28;19986;-52
2022/02/22 01:21:05;;;;;;;;;;;1.20;99.90;;;;;;4174959;28;20031;-51
2022/02/22 01:23:07;;;;;;;;;;;1.20;99.90;;;;;;4176195;28;19928;-50
2022/02/22 01:25:10;;;;;;;;;;;1.30;99.90;;;;;;4178072;28;19929;-52
2022/02/22 01:27:12;;;;;;;;;;;1.40;99.90;;;;;;4175330;28;19974;-51
2022/02/22 01:29:14;;;;;;;;;;;1.50;99.90;;;;;;4178645;28;19925;-53
2022/02/22 01:31:16;;;;;;;;;;;1.70;99.90;;;;;;4176340;28;19932;-52
2022/02/22 01:33:18;;;;;;;;;;;1.60;99.90;;;;;;4175602;28;19924;-52
2022/02/22 01:35:21;;;;;;;;;;;1.50;99.90;;;;;;4178648;28;19955;-51
2022/02/22 01:37:22;;;;;;;;;;;1.40;99.90;;;;;;4178002;28;20694;-51
2022/02/22 01:39:24;;;;;;;;;;;1.60;99.90;;;;;;4182410;28;19936;-52
2022/02/22 01:41:29;;;;;;;;;;;1.40;99.90;;;;;;4166765;28;19972;-51
2022/02/22 01:43:31;;;;;;;;;;;1.20;99.90;;;;;;4172929;28;19932;-51
2022/02/22 01:45:34;;;;;;;;;;;0.90;99.90;;;;;;4174978;28;19952;-52
2022/02/22 01:47:36;;;;;;;;;;;0.90;99.90;;;;;;4173626;28;20005;-52
2022/02/22 01:49:38;;;;;;;;;;;1.00;99.90;;;;;;4172478;28;19956;-53
2022/02/22 01:51:43;;;;;;;;;;;0.90;99.90;;;;;;4176257;28;20027;-51
2022/02/22 01:53:45;;;;;;;;;;;0.70;99.90;;;;;;4164645;28;19925;-52
2022/02/22 01:55:48;;;;;;;;;;;0.60;99.90;;;;;;4169091;28;19929;-52
2022/02/22 01:57:50;;;;;;;;;;;0.90;99.90;;;;;;4176534;28;19925;-52
2022/02/22 01:59:52;;;;;;;;;;;1.10;99.90;;;;;;4175620;28;19925;-52
2022/02/22 02:01:54;;;;;;;;;;;1.20;99.90;;;;;;4168495;28;19940;-53
2022/02/22 02:03:56;;;;;;;;;;;1.20;99.90;;;;;;4176941;28;19929;-52
2022/02/22 02:05:58;;;;;;;;;;;1.00;99.90;;;;;;4169767;28;19956;-52
2022/02/22 02:08:00;;;;;;;;;;;1.30;99.90;;;;;;4170619;28;20392;-51
2022/02/22 02:10:02;;;;;;;;;;;1.70;99.90;;;;;;4169509;28;19975;-51
2022/02/22 02:12:04;;;;;;;;;;;2.10;99.90;;;;;;4169038;28;19929;-52
2022/02/22 02:14:06;;;;;;;;;;;1.90;99.90;;;;;;4167702;28;19932;-52
2022/02/22 02:16:08;;;;;;;;;;;1.60;99.90;;;;;;4165956;28;19976;-52
2022/02/22 02:18:10;;;;;;;;;;;1.40;99.90;;;;;;4170888;28;19925;-52
2022/02/22 02:20:12;;;;;;;;;;;1.50;99.90;;;;;;4167035;28;19929;-53
2022/02/22 02:22:14;;;;;;;;;;;1.90;99.90;;;;;;4179694;28;20591;-51
2022/02/22 02:24:18;;;;;;;;;;;2.20;99.90;;;;;;4174349;28;19964;-52
2022/02/22 02:26:20;;;;;;;;;;;2.40;99.90;;;;;;4177696;28;19925;-52
2022/02/22 02:28:22;;;;;;;;;;;2.20;99.90;;;;;;4180330;28;19995;-52
2022/02/22 02:30:24;;;;;;;;;;;2.20;99.90;;;;;;4174002;28;20377;-50
2022/02/22 02:32:27;;;;;;;;;;;2.20;99.90;;;;;;4166993;28;19929;-53
2022/02/22 02:34:29;;;;;;;;;;;2.10;99.90;;;;;;4178420;28;19974;-51
2022/02/22 02:36:33;;;;;;;;;;;2.00;99.90;;;;;;4173981;28;19955;-52
2022/02/22 02:38:35;;;;;;;;;;;2.00;99.90;;;;;;4176067;28;19929;-53
2022/02/22 02:40:38;;;;;;;;;;;2.30;99.90;;;;;;4169915;28;20418;-51
2022/02/22 02:42:43;;;;;;;;;;;2.30;99.90;;;;;;4170655;28;19929;-52
2022/02/22 02:44:45;;;;;;;;;;;2.20;99.90;;;;;;4166480;28;19933;-51
2022/02/22 02:46:47;;;;;;;;;;;2.30;99.90;;;;;;4181991;28;19999;-53
2022/02/22 02:48:49;;;;;;;;;;;2.30;99.90;;;;;;4173004;28;20011;-51
2022/02/22 02:50:51;;;;;;;;;;;2.30;99.90;;;;;;4170805;28;20020;-51
2022/02/22 02:52:53;;;;;;;;;;;2.40;99.90;;;;;;4187809;28;20653;-53
2022/02/22 02:54:55;;;;;;;;;;;2.40;99.90;;;;;;4178535;28;20031;-52
2022/02/22 02:56:57;;;;;;;;;;;1.90;99.90;;;;;;4167455;28;19928;-52
2022/02/22 02:59:02;;;;;;;;;;;1.70;99.90;;;;;;4172947;28;20372;-51
2022/02/22 03:01:04;;;;;;;;;;;1.90;99.90;;;;;;4169638;28;19937;-51
2022/02/22 03:03:06;;;;;;;;;;;2.10;99.90;;;;;;4168646;28;19925;-51
2022/02/22 03:05:09;;;;;;;;;;;2.30;99.90;;;;;;4177789;28;19999;-53
2022/02/22 03:07:11;;;;;;;;;;;2.30;99.90;;;;;;4175893;28;19975;-51
2022/02/22 03:09:13;;;;;;;;;;;2.30;99.90;;;;;;4195259;28;19936;-51
2022/02/22 03:11:15;;;;;;;;;;;2.40;99.90;;;;;;4173579;28;20344;-51
2022/02/22 03:13:17;;;;;;;;;;;2.50;99.90;;;;;;4178305;28;19932;-52
2022/02/22 03:15:19;;;;;;;;;;;2.50;99.90;;;;;;4182969;28;19959;-52
2022/02/22 03:17:21;;;;;;;;;;;2.70;99.90;;;;;;4173590;28;20181;-51
2022/02/22 03:19:23;;;;;;;;;;;2.80;99.90;;;;;;4174896;28;19970;-49
2022/02/22 03:21:25;;;;;;;;;;;3.00;99.90;;;;;;4169616;28;19994;-52
2022/02/22 03:23:27;;;;;;;;;;;2.90;99.90;;;;;;4174102;28;19924;-52
2022/02/22 03:25:29;;;;;;;;;;;3.00;99.90;;;;;;4178333;28;19971;-52
2022/02/22 03:27:31;;;;;;;;;;;3.00;99.90;;;;;;4168897;28;19933;-52
2022/02/22 03:29:32;;;;;;;;;;;3.10;99.90;;;;;;4171725;28;20405;-51
2022/02/22 03:31:35;;;;;;;;;;;3.20;99.90;;;;;;4178151;28;19925;-51
2022/02/22 03:33:37;;;;;;;;;;;2.90;99.90;;;;;;4177199;28;19925;-52
2022/02/22 03:35:40;;;;;;;;;;;2.90;99.90;;;;;;4166380;28;20002;-52
2022/02/22 03:37:42;;;;;;;;;;;3.10;99.90;;;;;;4167193;28;20020;-52
2022/02/22 03:39:44;;;;;;;;;;;2.90;99.90;;;;;;4178929;28;19932;-52
2022/02/22 03:41:45;;;;;;;;;;;2.90;99.90;;;;;;4173867;28;20035;-52
2022/02/22 03:43:47;;;;;;;;;;;2.80;99.90;;;;;;4179889;28;20355;-51
2022/02/22 03:45:49;;;;;;;;;;;2.50;99.90;;;;;;4171904;28;20359;-50
2022/02/22 03:47:51;;;;;;;;;;;2.40;99.90;;;;;;4170214;28;20369;-52
2022/02/22 03:49:53;;;;;;;;;;;2.20;99.90;;;;;;4162845;28;19929;-53
2022/02/22 03:51:55;;;;;;;;;;;2.30;99.90;;;;;;4183179;28;19924;-53
2022/02/22 03:53:57;;;;;;;;;;;2.40;99.90;;;;;;4173107;28;20013;-52
2022/02/22 03:55:59;;;;;;;;;;;2.30;99.90;;;;;;4177414;28;20007;-52
2022/02/22 03:58:01;;;;;;;;;;;2.00;99.90;;;;;;4171353;28;19929;-51
2022/02/22 04:00:04;;;;;;;;;;;1.90;99.90;;;;;;4166876;28;20327;-52
2022/02/22 04:02:06;;;;;;;;;;;1.90;99.90;;;;;;4166050;28;20397;-52
2022/02/22 04:04:08;;;;;;;;;;;1.80;99.90;;;;;;4173435;28;20447;-52
2022/02/22 04:06:10;;;;;;;;;;;1.80;99.90;;;;;;4169290;28;20385;-52
2022/02/22 04:08:13;;;;;;;;;;;1.70;99.90;;;;;;4178988;28;20010;-52
2022/02/22 04:10:15;;;;;;;;;;;1.60;99.90;;;;;;4177001;28;19952;-52
2022/02/22 04:12:17;;;;;;;;;;;1.70;99.90;;;;;;4177504;28;20011;-52
2022/02/22 04:14:20;;;;;;;;;;;1.80;99.90;;;;;;4177567;28;19925;-52
2022/02/22 04:16:22;;;;;;;;;;;1.80;99.90;;;;;;4171982;28;19925;-52
2022/02/22 04:18:24;;;;;;;;;;;2.00;99.90;;;;;;4173282;28;19928;-51
2022/02/22 04:20:26;;;;;;;;;;;1.90;99.90;;;;;;4169335;28;19924;-52
2022/02/22 04:22:28;;;;;;;;;;;1.80;99.90;;;;;;4169052;28;20002;-51
2022/02/22 04:24:30;;;;;;;;;;;1.80;99.90;;;;;;4170959;28;20599;-52
2022/02/22 04:26:32;;;;;;;;;;;1.80;99.90;;;;;;4167912;28;19929;-52
2022/02/22 04:28:34;;;;;;;;;;;1.70;99.90;;;;;;4170988;28;20316;-51
2022/02/22 04:30:36;;;;;;;;;;;1.50;99.90;;;;;;4178267;28;19971;-52
2022/02/22 04:32:38;;;;;;;;;;;1.40;99.90;;;;;;4171882;28;19925;-52
2022/02/22 04:34:40;;;;;;;;;;;1.50;99.90;;;;;;4175254;28;20356;-52
2022/02/22 04:36:42;;;;;;;;;;;1.60;99.90;;;;;;4163789;28;19925;-52
2022/02/22 04:38:44;;;;;;;;;;;1.60;99.90;;;;;;4167722;28;19964;-51
2022/02/22 04:40:46;;;;;;;;;;;1.70;99.90;;;;;;4167594;28;20426;-53
2022/02/22 04:42:49;;;;;;;;;;;1.80;99.90;;;;;;4170540;28;20023;-52
2022/02/22 04:44:51;;;;;;;;;;;1.90;99.90;;;;;;4174186;28;19925;-51
2022/02/22 04:46:53;;;;;;;;;;;2.00;99.90;;;;;;4165835;28;19928;-52
2022/02/22 04:48:55;;;;;;;;;;;1.90;99.90;;;;;;4170177;28;19968;-50
2022/02/22 04:51:01;;;;;;;;;;;1.70;99.90;;;;;;4173646;28;20309;-51
2022/02/22 04:53:03;;;;;;;;;;;1.50;99.90;;;;;;4166728;28;19931;-52
2022/02/22 04:55:06;;;;;;;;;;;1.40;99.90;;;;;;4179178;28;19925;-51
2022/02/22 04:57:08;;;;;;;;;;;1.30;99.90;;;;;;4176147;28;19928;-51
2022/02/22 04:59:10;;;;;;;;;;;1.50;99.90;;;;;;4165571;28;19936;-52
2022/02/22 05:01:12;;;;;;;;;;;1.40;99.90;;;;;;4174306;28;19932;-50
2022/02/22 05:03:14;;;;;;;;;;;1.40;99.90;;;;;;4175265;28;19928;-52
2022/02/22 05:05:17;;;;;;;;;;;1.20;99.90;;;;;;4172697;28;19968;-52
2022/02/22 05:07:19;;;;;;;;;;;1.00;99.90;;;;;;4169454;28;19933;-51
2022/02/22 05:09:21;;;;;;;;;;;1.10;99.90;;;;;;4173702;28;19929;-52
2022/02/22 05:11:23;;;;;;;;;;;1.20;99.90;;;;;;4168960;28;19964;-51
2022/02/22 05:13:25;;;;;;;;;;;1.10;99.90;;;;;;4176621;28;19975;-52
2022/02/22 05:15:31;;;;;;;;;;;1.10;99.90;;;;;;4170291;28;20036;-51
2022/02/22 05:17:33;;;;;;;;;;;0.90;99.90;;;;;;4169790;28;19936;-51
2022/02/22 05:19:37;;;;;;;;;;;1.00;99.90;;;;;;4177332;28;19936;-53
2022/02/22 05:21:41;;;;;;;;;;;1.20;99.90;;;;;;4171377;28;20035;-52
2022/02/22 05:23:43;;;;;;;;;;;1.80;99.90;;;;;;4171700;28;20301;-50
2022/02/22 05:25:45;;;;;;;;;;;2.60;99.90;;;;;;4171556;28;20019;-52
2022/02/22 05:27:47;;;;;;;;;;;2.60;99.90;;;;;;4170939;28;19964;-52
2022/02/22 05:29:48;;;;;;;;;;;2.30;99.90;;;;;;4176529;28;19925;-52
2022/02/22 05:31:50;;;;;;;;;;;2.50;99.90;;;;;;4182289;28;20015;-51
2022/02/22 05:33:52;;;;;;;;;;;2.60;99.90;;;;;;4168799;28;20031;-51
2022/02/22 05:35:54;;;;;;;;;;;2.90;99.90;;;;;;4163668;28;20408;-51
2022/02/22 05:37:56;;;;;;;;;;;3.00;99.90;;;;;;4176357;28;19940;-52
2022/02/22 05:39:58;;;;;;;;;;;2.60;99.90;;;;;;4170262;28;19933;-50
2022/02/22 05:42:00;;;;;;;;;;;2.80;99.90;;;;;;4177630;28;19929;-51
2022/02/22 05:44:02;;;;;;;;;;;2.70;99.90;;;;;;4166828;28;19960;-52
2022/02/22 05:46:04;;;;;;;;;;;2.50;99.90;;;;;;4167798;28;20436;-52
2022/02/22 05:48:06;;;;;;;;;;;2.70;99.90;;;;;;4162533;28;20351;-52
2022/02/22 05:50:09;;;;;;;;;;;2.80;99.90;;;;;;4171664;28;20490;-49
2022/02/22 05:52:11;;;;;;;;;;;2.90;99.90;;;;;;4165384;28;19932;-53
2022/02/22 05:54:12;;;;;;;;;;;2.90;99.90;;;;;;4177022;28;20610;-52
2022/02/22 05:56:14;;;;;;;;;;;2.90;99.90;;;;;;4173615;28;19935;-52
2022/02/22 05:58:16;;;;;;;;;;;3.10;99.90;;;;;;4168701;28;19972;-51
2022/02/22 06:00:18;;;;;;;;;;;3.10;99.90;;;;;;4183168;28;20019;-51
2022/02/22 06:02:20;;;;;;;;;;;3.20;99.90;;;;;;4173313;28;19940;-51
2022/02/22 06:04:23;;;;;;;;;;;3.30;99.90;;;;;;4169120;28;19964;-51
2022/02/22 06:06:25;;;;;;;;;;;3.30;99.90;;;;;;4175913;28;19948;-53
2022/02/22 06:08:29;;;;;;;;;;;3.40;99.90;;;;;;4173487;28;20027;-51
2022/02/22 06:10:31;;;;;;;;;;;3.50;99.90;;;;;;4172121;28;20232;-53
2022/02/22 06:12:33;;;;;;;;;;;3.60;99.90;;;;;;4174388;28;19983;-52
2022/02/22 06:14:35;;;;;;;;;;;3.80;99.90;;;;;;4163859;28;20015;-52
2022/02/22 06:16:37;;;;;;;;;;;3.80;99.90;;;;;;4176620;28;20486;-52
2022/02/22 06:18:39;;;;;;;;;;;3.60;99.90;;;;;;4173656;28;20409;-51
2022/02/22 06:20:42;;;;;;;;;;;3.70;99.90;;;;;;4176316;28;20322;-52
2022/02/22 06:22:45;;;;;;;;;;;3.90;99.90;;;;;;4176020;28;19924;-51
2022/02/22 06:24:47;;;;;;;;;;;4.00;99.90;;;;;;4168510;28;20393;-52
2022/02/22 06:26:49;;;;;;;;;;;4.00;99.90;;;;;;4162385;28;19966;-51
2022/02/22 06:28:51;;;;;;;;;;;4.00;99.90;;;;;;4177543;28;19960;-52
2022/02/22 06:30:53;;;;;;;;;;;4.00;99.90;;;;;;4166778;28;20389;-53
2022/02/22 06:32:55;;;;;;;;;;;3.90;99.90;;;;;;4175224;28;19956;-53
2022/02/22 06:35:09;;;;;;;;;;;4.00;99.90;;;;;;4165088;28;19929;-52
2022/02/22 06:37:11;;;;;;;;;;;4.20;99.90;;;;;;4170451;28;19948;-51
2022/02/22 06:39:13;;;;;;;;;;;4.30;99.90;;;;;;4165754;28;19948;-51
2022/02/22 06:41:15;;;;;;;;;;;4.40;99.90;;;;;;4175072;28;19932;-51
2022/02/22 06:43:17;;;;;;;;;;;4.30;99.90;;;;;;4171357;28;20654;-52
2022/02/22 06:45:20;;;;;;;;;;;4.30;99.90;;;;;;4169612;28;19932;-52
2022/02/22 06:47:21;;;;;;;;;;;4.20;99.90;;;;;;4172973;28;19987;-52
2022/02/22 06:49:23;;;;;;;;;;;4.20;99.90;;;;;;4169008;28;19952;-52
2022/02/22 06:51:25;;;;;;;;;;;4.20;99.90;;;;;;4176336;28;20396;-52
2022/02/22 06:53:27;;;;;;;;;;;4.20;99.90;;;;;;4173141;28;19940;-52
2022/02/22 06:55:29;;;;;;;;;;;4.20;99.90;;;;;;4175584;28;19935;-51
2022/02/22 06:57:32;;;;;;;;;;;4.20;99.90;;;;;;4175953;28;19935;-52
2022/02/22 06:59:34;;;;;;;;;;;4.30;99.90;;;;;;4173354;28;19925;-50
2022/02/22 07:01:36;;;;;;;;;;;4.30;99.90;;;;;;4175081;28;19963;-51
2022/02/22 07:03:38;;;;;;;;;;;4.40;99.10;;;;;;4176606;28;19967;-52
2022/02/22 07:05:39;;;;;;;;;;;4.60;99.80;;;;;;4169736;28;19925;-52
2022/02/22 07:07:41;;;;;;;;;;;4.80;99.10;;;;;;4165287;28;20637;-52
2022/02/22 07:09:43;;;;;;;;;;;4.80;99.30;;;;;;4167348;28;20004;-51
2022/02/22 07:11:45;;;;;;;;;;;4.80;98.90;;;;;;4168919;28;19964;-51
2022/02/22 07:13:47;;;;;;;;;;;4.90;99.00;;;;;;4166263;28;19925;-52
2022/02/22 07:15:49;;;;;;;;;;;4.80;99.30;;;;;;4178169;28;19925;-53
2022/02/22 07:17:52;;;;;;;;;;;4.90;98.40;;;;;;4176462;28;19931;-52
2022/02/22 07:19:55;;;;;;;;;;;5.00;98.50;;;;;;4167170;28;19925;-53
2022/02/22 07:21:57;;;;;;;;;;;5.10;98.20;;;;;;4172426;28;19925;-53
2022/02/22 07:23:58;;;;;;;;;;;5.10;99.00;;;;;;4169627;28;19929;-52
2022/02/22 07:26:00;;;;;;;;;;;5.30;96.20;;;;;;4168884;28;19932;-54
2022/02/22 07:28:03;;;;;;;;;;;5.50;98.10;;;;;;4166922;28;19983;-53
2022/02/22 07:30:09;;;;;;;;;;;5.50;97.40;;;;;;4175657;28;19978;-52
2022/02/22 07:32:15;;;;;;;;;;;5.60;97.50;;;;;;4164656;28;20375;-53
2022/02/22 07:34:17;;;;;;;;;;;5.80;97.10;;;;;;4172213;28;19925;-52
2022/02/22 07:36:19;;;;;;;;;;;5.80;97.00;;;;;;4170369;28;19952;-52
2022/02/22 07:38:22;;;;;;;;;;;5.80;97.20;;;;;;4176360;28;20288;-53
2022/02/22 07:40:25;;;;;;;;;;;5.90;96.90;;;;;;4178798;28;20397;-52
2022/02/22 07:42:28;;;;;;;;;;;6.20;96.70;;;;;;4178086;28;21178;-52
2022/02/22 07:44:30;;;;;;;;;;;6.30;96.30;;;;;;4174749;28;19925;-52
2022/02/22 07:46:32;;;;;;;;;;;6.40;96.70;;;;;;4177137;28;20437;-53
2022/02/22 07:48:34;;;;;;;;;;;6.50;96.30;;;;;;4169296;28;19924;-54
2022/02/22 07:50:38;;;;;;;;;;;6.40;96.80;;;;;;4164022;28;19968;-52
2022/02/22 07:52:40;;;;;;;;;;;6.50;96.60;;;;;;4176944;28;20616;-53
2022/02/22 07:54:42;;;;;;;;;;;6.60;96.50;;;;;;4167307;28;19925;-53
2022/02/22 07:56:44;;;;;;;;;;;6.60;96.80;;;;;;4173655;28;19929;-53
2022/02/22 07:58:46;;;;;;;;;;;6.60;96.90;;;;;;4177063;28;20002;-53
2022/02/22 08:00:48;;;;;;;;;;;6.60;97.20;;;;;;4171244;28;19933;-53
2022/02/22 08:02:54;;;;;;;;;;;6.70;97.40;;;;;;4178501;28;20277;-53
2022/02/22 08:04:56;;;;;;;;;;;6.90;96.80;;;;;;4177193;28;20019;-54
2022/02/22 08:06:58;;;;;;;;;;;7.10;96.30;;;;;;4177223;28;19971;-51
2022/02/22 08:09:00;;;;;;;;;;;7.10;96.80;;;;;;4177924;28;19935;-53
2022/02/22 08:11:02;;;;;;;;;;;7.20;96.90;;;;;;4169594;28;19929;-54
2022/02/22 08:13:04;;;;;;;;;;;7.30;95.70;;;;;;4165505;28;20439;-54
2022/02/22 08:15:06;;;;;;;;;;;7.40;95.10;;;;;;4179882;28;19933;-53
2022/02/22 08:17:09;;;;;;;;;;;7.60;93.60;;;;;;4174408;28;20515;-53
2022/02/22 08:19:11;;;;;;;;;;;7.80;93.20;;;;;;4177014;28;19925;-53
2022/02/22 08:21:13;;;;;;;;;;;8.00;91.90;;;;;;4178823;28;19925;-53
2022/02/22 08:23:16;;;;;;;;;;;8.20;90.90;;;;;;4175613;28;19933;-52
2022/02/22 08:25:18;;;;;;;;;;;8.40;90.60;;;;;;4178359;28;19929;-53
2022/02/22 08:27:20;;;;;;;;;;;8.50;90.20;;;;;;4179479;28;19931;-53
2022/02/22 08:29:23;;;;;;;;;;;8.70;89.60;;;;;;4175994;28;19932;-53
2022/02/22 08:31:26;;;;;;;;;;;8.80;87.20;;;;;;4176903;28;19925;-53
2022/02/22 08:33:29;;;;;;;;;;;8.80;86.80;;;;;;4178326;28;19951;-52
2022/02/22 08:35:32;;;;;;;;;;;9.00;82.20;;;;;;4173605;28;19952;-52
2022/02/22 08:37:34;;;;;;;;;;;9.10;82.00;;;;;;4164724;28;20612;-53
2022/02/22 08:39:36;;;;;;;;;;;9.30;78.90;;;;;;4179086;28;19982;-54
2022/02/22 08:41:39;;;;;;;;;;;9.40;79.70;;;;;;4172725;28;19991;-53
2022/02/22 08:43:41;;;;;;;;;;;9.40;81.70;;;;;;4179268;28;19924;-53
2022/02/22 08:45:44;;;;;;;;;;;9.40;79.40;;;;;;4178461;28;20353;-53
2022/02/22 08:47:46;;;;;;;;;;;9.50;77.10;;;;;;4175196;28;19929;-52
2022/02/22 08:49:48;;;;;;;;;;;9.60;79.10;;;;;;4179346;28;19943;-53
2022/02/22 08:51:50;;;;;;;;;;;9.60;78.40;;;;;;4176931;28;19925;-52
2022/02/22 08:54:12;;;;;;;;;;;9.70;74.70;;;;;;4176891;28;19928;-52
2022/02/22 08:56:14;;;;;;;;;;;9.90;74.00;;;;;;4177859;28;20019;-53
2022/02/22 08:58:16;;;;;;;;;;;9.90;74.50;;;;;;4176957;28;20277;-52
2022/02/22 09:00:19;;;;;;;;;;;10.00;75.60;;;;;;4176034;28;19926;-53
2022/02/22 09:02:21;;;;;;;;;;;10.00;76.30;;;;;;4177772;28;20366;-53
2022/02/22 09:04:23;;;;;;;;;;;10.00;74.80;;;;;;4178613;28;19928;-53
2022/02/22 09:06:25;;;;;;;;;;;10.00;74.10;;;;;;4173512;28;20052;-53
2022/02/22 09:08:27;;;;;;;;;;;10.20;74.60;;;;;;4176058;28;20359;-52
2022/02/22 09:10:30;;;;;;;;;;;10.20;73.40;;;;;;4167432;28;20340;-53
2022/02/22 09:12:32;;;;;;;;;;;10.30;74.60;;;;;;4169319;28;20075;-53
2022/02/22 09:14:34;;;;;;;;;;;10.40;74.20;;;;;;4163636;28;20423;-53
2022/02/22 09:16:36;;;;;;;;;;;10.40;71.40;;;;;;4169798;28;19929;-52
2022/02/22 09:18:40;;;;;;;;;;;10.50;73.30;;;;;;4168281;28;20312;-52
2022/02/22 09:20:42;;;;;;;;;;;10.60;73.30;;;;;;4177676;28;19928;-53
2022/02/22 09:22:44;;;;;;;;;;;10.60;76.40;;;;;;4170058;28;19932;-53
2022/02/22 09:24:46;;;;;;;;;;;10.80;72.30;;;;;;4169284;28;19933;-53
2022/02/22 09:26:48;;;;;;;;;;;10.90;72.40;;;;;;4165727;28;19961;-53
2022/02/22 09:28:52;;;;;;;;;;;10.90;70.80;;;;;;4174493;28;19925;-53
2022/02/22 09:30:54;;;;;;;;;;;10.90;70.10;;;;;;4174736;28;20389;-52
2022/02/22 09:32:56;;;;;;;;;;;11.00;68.70;;;;;;4162189;28;19933;-52
2022/02/22 09:34:58;;;;;;;;;;;11.00;69.00;;;;;;4174066;28;19931;-53
2022/02/22 09:37:03;;;;;;;;;;;11.10;68.10;;;;;;4167361;28;20380;-53
2022/02/22 09:39:06;;;;;;;;;;;11.20;65.00;;;;;;4162218;28;19971;-53
2022/02/22 09:41:09;;;;;;;;;;;11.20;66.00;;;;;;4175384;28;19924;-53
2022/02/22 09:43:10;;;;;;;;;;;11.30;64.90;;;;;;4164872;28;19929;-53
2022/02/22 09:45:14;;;;;;;;;;;11.30;65.20;;;;;;4170533;28;19975;-53
2022/02/22 09:47:16;;;;;;;;;;;11.30;66.30;;;;;;4174979;28;19939;-52
2022/02/22 09:49:18;;;;;;;;;;;11.40;65.80;;;;;;4170174;28;20274;-54
2022/02/22 09:51:23;;;;;;;;;;;11.50;67.20;;;;;;4171554;28;19929;-54
2022/02/22 09:53:26;;;;;;;;;;;11.50;64.00;;;;;;4174146;28;19936;-53
2022/02/22 09:55:28;;;;;;;;;;;11.50;63.90;;;;;;4171244;28;20638;-53
2022/02/22 09:57:30;;;;;;;;;;;11.50;64.00;;;;;;4166214;28;19983;-52
2022/02/22 09:59:32;;;;;;;;;;;11.50;62.70;;;;;;4176666;28;19980;-52
2022/02/22 10:01:44;;;;;;;;;;;11.50;63.50;;;;;;4171520;28;20451;-54
2022/02/22 10:03:58;;;;;;;;;;;11.60;63.30;;;;;;4163280;28;19929;-54
2022/02/22 10:06:01;;;;;;;;;;;11.80;63.40;;;;;;4175179;28;19929;-52
2022/02/22 10:08:04;;;;;;;;;;;11.80;62.80;;;;;;4176440;28;20265;-53
2022/02/22 10:10:06;;;;;;;;;;;11.80;60.70;;;;;;4161866;28;19936;-53
2022/02/22 10:12:09;;;;;;;;;;;11.80;60.30;;;;;;4167737;28;19933;-53
2022/02/22 10:14:19;;;;;;;;;;;11.90;62.80;;;;;;4167940;28;19967;-53
2022/02/22 10:16:21;;;;;;;;;;;12.10;62.90;;;;;;4161850;28;19928;-53
2022/02/22 10:18:46;;;;;;;;;;;11.90;61.20;;;;;;4175877;28;20714;-53
2022/02/22 10:20:48;;;;;;;;;;;11.90;59.50;;;;;;4173536;28;20331;-53
2022/02/22 10:22:54;;;;;;;;;;;11.80;59.20;;;;;;4176314;28;20016;-53
2022/02/22 10:25:07;;;;;;;;;;;11.90;60.00;;;;;;4176930;28;19933;-52
2022/02/22 10:27:09;;;;;;;;;;;11.90;59.60;;;;;;4174753;28;19983;-52
2022/02/22 10:29:18;;;;;;;;;;;12.00;59.30;;;;;;4175973;28;19933;-53
2022/02/22 10:31:33;;;;;;;;;;;12.10;61.60;;;;;;4178155;28;19925;-54
2022/02/22 10:33:40;;;;;;;;;;;12.10;60.20;;;;;;4176198;28;20074;-54
2022/02/22 10:36:04;;;;;;;;;;;12.00;58.90;;;;;;4175801;28;20026;-53
2022/02/22 10:38:11;;;;;;;;;;;12.00;59.30;;;;;;4162194;28;19933;-53
2022/02/22 10:40:13;;;;;;;;;;;12.20;62.70;;;;;;4170776;28;19929;-53
2022/02/22 10:42:16;;;;;;;;;;;12.30;62.10;;;;;;4168420;28;19929;-54
2022/02/22 10:44:29;;;;;;;;;;;12.30;61.70;;;;;;4164869;28;19932;-53
2022/02/22 10:46:37;;;;;;;;;;;12.30;59.30;;;;;;4177379;28;20023;-53
2022/02/22 10:48:40;;;;;;;;;;;12.50;61.20;;;;;;4178899;28;20015;-54
2022/02/22 10:50:50;;;;;;;;;;;12.40;58.90;;;;;;4180857;28;20086;-53
2022/02/22 10:52:52;;;;;;;;;;;12.30;58.70;;;;;;4168989;28;19943;-54
2022/02/22 10:54:58;;;;;;;;;;;12.30;59.20;;;;;;4172001;28;19925;-53
2022/02/22 10:57:03;;;;;;;;;;;12.30;57.80;;;;;;4180946;28;20336;-53
2022/02/22 10:59:05;;;;;;;;;;;12.40;56.90;;;;;;4169730;28;20392;-53
2022/02/22 11:01:13;;;;;;;;;;;12.50;58.20;;;;;;4170277;28;19928;-53
2022/02/22 11:03:15;;;;;;;;;;;12.50;58.00;;;;;;4170467;28;19929;-53
2022/02/22 11:05:17;;;;;;;;;;;12.50;57.30;;;;;;4170152;28;19925;-54
2022/02/22 11:07:22;;;;;;;;;;;12.50;56.80;;;;;;4171972;28;19931;-54
2022/02/22 11:09:25;;;;;;;;;;;12.50;57.10;;;;;;4166027;28;19926;-53
2022/02/22 11:11:41;;;;;;;;;;;12.50;59.70;;;;;;4171652;28;20655;-54
2022/02/22 11:13:54;;;;;;;;;;;12.50;58.60;;;;;;4173578;28;19970;-54
2022/02/22 11:16:12;;;;;;;;;;;12.40;55.50;;;;;;4169030;28;19972;-54
2022/02/22 11:18:20;;;;;;;;;;;12.40;55.30;;;;;;4162629;28;20351;-53
2022/02/22 11:20:28;;;;;;;;;;;12.40;55.20;;;;;;4174556;28;19924;-54
2022/02/22 11:22:31;;;;;;;;;;;12.40;55.40;;;;;;4167216;28;20442;-54
2022/02/22 11:24:41;;;;;;;;;;;12.30;54.20;;;;;;4165460;28;19971;-54
2022/02/22 11:27:09;;;;;;;;;;;12.50;55.80;;;;;;4171820;28;20369;-53
2022/02/22 11:29:12;;;;;;;;;;;12.50;55.40;;;;;;4171321;28;19928;-53
2022/02/22 11:31:17;;;;;;;;;;;12.50;53.40;;;;;;4173800;28;20212;-52
2022/02/22 11:33:20;;;;;;;;;;;12.50;54.00;;;;;;4174059;28;19929;-54
2022/02/22 11:35:22;;;;;;;;;;;12.60;53.40;;;;;;4168249;28;19925;-53
2022/02/22 11:37:29;;;;;;;;;;;12.70;54.20;;;;;;4169092;28;19943;-53
2022/02/22 11:39:41;;;;;;;;;;;12.60;53.40;;;;;;4173127;28;19968;-54
2022/02/22 11:41:43;;;;;;;;;;;12.70;56.00;;;;;;4172554;28;19925;-53
2022/02/22 11:43:53;;;;;;;;;;;12.90;56.30;;;;;;4175106;28;20044;-53
2022/02/22 11:46:05;;;;;;;;;;;12.80;55.10;;;;;;4174697;28;19928;-54
2022/02/22 11:48:14;;;;;;;;;;;12.60;54.50;;;;;;4170868;28;20048;-54
2022/02/22 11:50:17;;;;;;;;;;;12.70;55.70;;;;;;4169153;28;19975;-54
2022/02/22 11:52:19;;;;;;;;;;;12.70;56.10;;;;;;4172910;28;19929;-53
2022/02/22 11:54:22;;;;;;;;;;;12.80;55.00;;;;;;4171615;28;20350;-54
2022/02/22 11:56:25;;;;;;;;;;;12.90;55.70;;;;;;4175034;28;20032;-53
2022/02/22 11:58:28;;;;;;;;;;;13.00;56.60;;;;;;4175650;28;19925;-54
2022/02/22 12:00:35;;;;;;;;;;;13.10;57.70;;;;;;4171168;28;19929;-53
2022/02/22 12:02:41;;;;;;;;;;;13.40;57.30;;;;;;4170743;28;19929;-54
2022/02/22 12:04:44;;;;;;;;;;;13.40;56.90;;;;;;4173012;28;19933;-53